Airfield :
LOGIN :

Register | Disclaimer

   EN    FR    IT 

 










Legend :    VFR   Marginal VFR   IFR   Intensive IFR   Very Intensive IFR
Visi :
Ceiling :
>= 8 km
>= 3000ft
5 to 8 km
1000 to 3000 ft
1500m to 5 km
500 to 1000 ft
800 to 1500m
200 to 500 ft
< 800m
< 200 ft
Symbols :   Thunderstorms  Fog  Heavy snow  Heavy precipitations  Wind > 20 kt
SIGMETs :     Misc.  Thunderstorms  Icing  Turbulence  Mountain Waves  Volcanic Ashes






- Airport Elevation : 512 ft
- IATA code : URO


LFOP - Rouen Vallée de Seine

CURRENT METAR :
  • 111600Z AUTO 23008KT 9999 VCTS ///CB 28/16 Q1013 TEMPO VRB20G35KT 2000 TSRAGS

EXPIRED METARs :
  • 111530Z AUTO 23014KT 9999 TS ///CB 30/15 Q1013 TEMPO VRB20G35KT 2000 TSRAGS
  • 111500Z AUTO 36005KT 340V060 9999 ///CB 33/16 Q1013 TEMPO VRB30G55KT 1000 TSGR
  • 111430Z AUTO 05006KT 020V100 9999 ///CB 34/15 Q1012 TEMPO VRB30G55KT 1000 TSGR
  • 111400Z AUTO 04006KT 350V090 9999 ///CB 34/14 Q1013 TEMPO VRB30G55KT 1000 TSGR
  • 111330Z AUTO VRB03KT 9999 ///TCU 36/15 Q1013 TEMPO VRB30G55KT 1000 TSGR BKN070CB

TAF TAF LFOP
Valid from the 11 at 12:00 until the 12 at 12:00 UTC


111100Z 1112/1212 VRB02KT CAVOK
TEMPO 1112/1212 SCT070CB
PROB40
TEMPO 1112/1120 VRB20G35KT 2000 TSRAGS BKN070CB
PROB30
TEMPO 1113/1117 VRB30G55KT 1000 TSGR
ATIS : +33 2 35 80 80 34
Met : +33 2 32 86 52 80



MET'MAP, your aeronautical weather chart ! - Copyright ORBIFLY December 2007 - Disclaimer

ORBIFLY MET'MAP TEAM :

Programming & Development : Alexandra Zaïnal
Concept & original design : Baudouin d'Aumeries
Assistance for programming : Marc-Olivier Méhu
Technical & hardware support : Manuel Goepfert

Contact : metmap@orbifly.com




SOURCES & CREDITS :

   NOAA